createdAt,value
2022-12-22T00:00:05.892Z,23.35
2022-12-22T00:00:37.296Z,23.36
2022-12-22T00:01:08.695Z,23.34
2022-12-22T00:01:42.302Z,23.34
2022-12-22T00:02:18.078Z,23.34
2022-12-22T00:02:49.817Z,23.34
2022-12-22T00:03:21.453Z,23.31
2022-12-22T00:03:53.087Z,23.34
2022-12-22T00:04:24.515Z,23.36
2022-12-22T00:04:55.951Z,23.36
2022-12-22T00:05:27.281Z,23.33
2022-12-22T00:05:58.632Z,23.34
2022-12-22T00:06:30.075Z,23.33
2022-12-22T00:07:01.451Z,23.35
2022-12-22T00:07:32.866Z,23.35
2022-12-22T00:08:04.243Z,23.35
2022-12-22T00:08:35.616Z,23.33
2022-12-22T00:09:07.081Z,23.35
2022-12-22T00:09:38.443Z,23.35
2022-12-22T00:10:09.810Z,23.34
2022-12-22T00:10:41.242Z,23.32
2022-12-22T00:11:12.651Z,23.33
2022-12-22T00:11:44.045Z,23.32
2022-12-22T00:12:15.611Z,23.34
2022-12-22T00:12:46.979Z,23.33
2022-12-22T00:13:18.414Z,23.36
2022-12-22T00:13:49.797Z,23.35
2022-12-22T00:14:21.247Z,23.33
2022-12-22T00:14:52.688Z,23.35
2022-12-22T00:15:24.062Z,23.34
2022-12-22T00:15:55.468Z,23.35
2022-12-22T00:16:26.949Z,23.33
2022-12-22T00:16:58.388Z,23.35
2022-12-22T00:17:29.779Z,23.34
2022-12-22T00:18:01.183Z,23.34
2022-12-22T00:18:32.642Z,23.35
2022-12-22T00:19:04.074Z,23.36
2022-12-22T00:19:35.481Z,23.32
2022-12-22T00:20:06.905Z,23.32
2022-12-22T00:20:38.260Z,23.34
2022-12-22T00:21:09.627Z,23.34
2022-12-22T00:21:41.019Z,23.36
2022-12-22T00:22:12.545Z,23.36
2022-12-22T00:22:43.906Z,23.34
2022-12-22T00:23:15.284Z,23.35
2022-12-22T00:23:46.639Z,23.35
2022-12-22T00:24:18.100Z,23.35
2022-12-22T00:24:49.467Z,23.33
2022-12-22T00:25:20.845Z,23.32
2022-12-22T00:25:52.333Z,23.32
2022-12-22T00:26:23.711Z,23.32
2022-12-22T00:26:55.153Z,23.31
2022-12-22T00:27:26.555Z,23.31
2022-12-22T00:27:57.959Z,23.35
2022-12-22T00:28:29.351Z,23.36
2022-12-22T00:29:00.700Z,23.32
2022-12-22T00:29:32.147Z,23.32
2022-12-22T00:30:04.136Z,23.33
2022-12-22T00:30:35.571Z,23.32
2022-12-22T00:31:07.068Z,23.33
2022-12-22T00:31:38.531Z,23.32
2022-12-22T00:32:09.880Z,23.34
2022-12-22T00:32:41.289Z,23.33
2022-12-22T00:33:12.733Z,23.33
2022-12-22T00:33:44.104Z,23.33
2022-12-22T00:34:15.510Z,23.34
2022-12-22T00:34:46.942Z,23.34
2022-12-22T00:35:18.308Z,23.33
2022-12-22T00:35:49.722Z,23.34
2022-12-22T00:36:21.256Z,23.33
2022-12-22T00:36:52.776Z,23.33
2022-12-22T00:37:24.154Z,23.33
2022-12-22T00:37:55.509Z,23.34
2022-12-22T00:38:26.873Z,23.34
2022-12-22T00:38:58.236Z,23.34
2022-12-22T00:39:29.593Z,23.35
2022-12-22T00:40:01.005Z,23.34
2022-12-22T00:40:32.378Z,23.33
2022-12-22T00:41:03.780Z,23.32
2022-12-22T00:41:35.119Z,23.32
2022-12-22T00:42:06.515Z,23.32
2022-12-22T00:42:37.935Z,23.32
2022-12-22T00:43:09.327Z,23.32
2022-12-22T00:43:40.722Z,23.31
2022-12-22T00:44:12.109Z,23.31
2022-12-22T00:44:43.472Z,23.32
2022-12-22T00:45:14.900Z,23.33
2022-12-22T00:45:46.292Z,23.34
2022-12-22T00:46:17.810Z,23.34
2022-12-22T00:46:49.260Z,23.33
2022-12-22T00:47:20.680Z,23.33
2022-12-22T00:47:52.033Z,23.33
2022-12-22T00:48:23.476Z,23.33
2022-12-22T00:48:54.853Z,23.31
2022-12-22T00:49:26.235Z,23.32
2022-12-22T00:49:57.657Z,23.32
2022-12-22T00:50:29.004Z,23.34
2022-12-22T00:51:00.392Z,23.33
2022-12-22T00:51:31.843Z,23.33
2022-12-22T00:52:03.347Z,23.32
2022-12-22T00:52:34.729Z,23.33
2022-12-22T00:53:06.098Z,23.32
2022-12-22T00:53:37.480Z,23.33
2022-12-22T00:54:09.040Z,23.33
2022-12-22T00:54:40.566Z,23.32
2022-12-22T00:55:11.941Z,23.31
2022-12-22T00:55:43.318Z,23.32
2022-12-22T00:56:14.700Z,23.31
2022-12-22T00:56:46.108Z,23.32
2022-12-22T00:57:17.533Z,23.32
2022-12-22T00:57:48.962Z,23.32
2022-12-22T00:58:20.332Z,23.30
2022-12-22T00:58:51.714Z,23.31
2022-12-22T00:59:23.153Z,23.31
2022-12-22T00:59:54.538Z,23.32
2022-12-22T01:00:25.968Z,23.34
2022-12-22T01:00:57.352Z,23.31
2022-12-22T01:01:28.813Z,23.31
2022-12-22T01:02:00.431Z,23.31
2022-12-22T01:02:32.162Z,23.30
2022-12-22T01:03:03.761Z,23.32
2022-12-22T01:03:35.327Z,23.33
2022-12-22T01:04:06.787Z,23.33
2022-12-22T01:04:38.212Z,23.33
2022-12-22T01:05:09.607Z,23.32
2022-12-22T01:05:40.973Z,23.32
2022-12-22T01:06:12.567Z,23.30
2022-12-22T01:06:44.005Z,23.29
2022-12-22T01:07:15.437Z,23.31
2022-12-22T01:07:46.904Z,23.30
2022-12-22T01:08:18.295Z,23.31
2022-12-22T01:08:49.647Z,23.32
2022-12-22T01:09:21.080Z,23.31
2022-12-22T01:09:52.448Z,23.31
2022-12-22T01:10:23.853Z,23.31
2022-12-22T01:10:55.303Z,23.31
2022-12-22T01:11:26.734Z,23.32
2022-12-22T01:11:58.086Z,23.34
2022-12-22T01:12:29.973Z,23.33
2022-12-22T01:13:01.375Z,23.32
2022-12-22T01:13:32.742Z,23.31
2022-12-22T01:14:04.120Z,23.34
2022-12-22T01:14:35.560Z,23.33
2022-12-22T01:15:06.986Z,23.31
2022-12-22T01:15:38.373Z,23.33
2022-12-22T01:16:09.871Z,23.34
2022-12-22T01:16:41.303Z,23.31
2022-12-22T01:17:12.700Z,23.31
2022-12-22T01:17:44.063Z,23.30
2022-12-22T01:18:15.491Z,23.30
2022-12-22T01:18:46.830Z,23.32
2022-12-22T01:19:18.276Z,23.32
2022-12-22T01:19:49.647Z,23.30
2022-12-22T01:20:21.094Z,23.28
2022-12-22T01:20:52.443Z,23.31
2022-12-22T01:21:23.842Z,23.30
2022-12-22T01:21:55.263Z,23.29
2022-12-22T01:22:26.626Z,23.30
2022-12-22T01:22:57.961Z,23.29
2022-12-22T01:23:29.390Z,23.31
2022-12-22T01:24:00.841Z,23.28
2022-12-22T01:24:32.342Z,23.30
2022-12-22T01:25:03.741Z,23.31
2022-12-22T01:25:35.128Z,23.31
2022-12-22T01:26:06.567Z,23.31
2022-12-22T01:26:37.989Z,23.30
2022-12-22T01:27:09.401Z,23.31
2022-12-22T01:27:40.783Z,23.30
2022-12-22T01:28:12.177Z,23.30
2022-12-22T01:28:43.735Z,23.30
2022-12-22T01:29:15.218Z,23.31
2022-12-22T01:29:46.660Z,23.31
2022-12-22T01:30:18.169Z,23.31
2022-12-22T01:30:49.535Z,23.28
2022-12-22T01:31:20.943Z,23.29
2022-12-22T01:31:52.292Z,23.29
2022-12-22T01:32:23.692Z,23.29
2022-12-22T01:32:55.109Z,23.26
2022-12-22T01:33:26.470Z,23.28
2022-12-22T01:33:57.901Z,23.29
2022-12-22T01:34:29.268Z,23.30
2022-12-22T01:35:00.675Z,23.29
2022-12-22T01:35:32.119Z,23.29
2022-12-22T01:36:03.604Z,23.30
2022-12-22T01:36:35.080Z,23.31
2022-12-22T01:37:06.518Z,23.31
2022-12-22T01:37:37.879Z,23.32
2022-12-22T01:38:09.295Z,23.32
2022-12-22T01:38:40.714Z,23.32
2022-12-22T01:39:12.091Z,23.30
2022-12-22T01:39:43.437Z,23.30
2022-12-22T01:40:14.835Z,23.31
2022-12-22T01:40:46.245Z,23.30
2022-12-22T01:41:17.639Z,23.31
2022-12-22T01:41:49.048Z,23.30
2022-12-22T01:42:20.507Z,23.29
2022-12-22T01:42:51.917Z,23.28
2022-12-22T01:43:23.345Z,23.30
2022-12-22T01:43:54.787Z,23.29
2022-12-22T01:44:26.115Z,23.30
2022-12-22T01:44:57.517Z,23.31
2022-12-22T01:45:28.872Z,23.30
2022-12-22T01:46:00.292Z,23.29
2022-12-22T01:46:31.729Z,23.32
2022-12-22T01:47:03.134Z,23.30
2022-12-22T01:47:34.558Z,23.30
2022-12-22T01:48:06.195Z,23.29
2022-12-22T01:48:37.630Z,23.30
2022-12-22T01:49:09.105Z,23.30
2022-12-22T01:49:40.556Z,23.31
2022-12-22T01:50:11.931Z,23.30
2022-12-22T01:50:43.363Z,23.31
2022-12-22T01:51:14.835Z,23.30
2022-12-22T01:51:46.220Z,23.30
2022-12-22T01:52:17.612Z,23.30
2022-12-22T01:52:48.999Z,23.30
2022-12-22T01:53:20.345Z,23.30
2022-12-22T01:53:51.680Z,23.28
2022-12-22T01:54:23.262Z,23.30
2022-12-22T01:54:54.649Z,23.29
2022-12-22T01:55:26.068Z,23.31
2022-12-22T01:55:57.455Z,23.30
2022-12-22T01:56:28.808Z,23.30
2022-12-22T01:57:00.287Z,23.32
2022-12-22T01:57:31.664Z,23.30
2022-12-22T01:58:03.151Z,23.31
2022-12-22T01:58:34.548Z,23.30
2022-12-22T01:59:05.979Z,23.29
2022-12-22T01:59:37.570Z,23.29
2022-12-22T02:00:09.020Z,23.30
2022-12-22T02:00:40.394Z,23.29
2022-12-22T02:01:11.742Z,23.29
2022-12-22T02:01:43.241Z,23.29
2022-12-22T02:02:14.852Z,23.30
2022-12-22T02:02:46.487Z,23.30
2022-12-22T02:03:18.032Z,23.29
2022-12-22T02:03:49.474Z,23.28
2022-12-22T02:04:20.950Z,23.29
2022-12-22T02:04:52.370Z,23.30
2022-12-22T02:05:23.731Z,23.28
2022-12-22T02:05:55.182Z,23.29
2022-12-22T02:06:26.562Z,23.29
2022-12-22T02:07:00.189Z,23.29
2022-12-22T02:07:31.923Z,23.27
2022-12-22T02:08:03.282Z,23.28
2022-12-22T02:08:34.668Z,23.28
2022-12-22T02:09:06.020Z,23.28
2022-12-22T02:09:37.404Z,23.30
2022-12-22T02:10:08.899Z,23.30
2022-12-22T02:10:40.300Z,23.29
2022-12-22T02:11:11.645Z,23.30
2022-12-22T02:11:43.046Z,23.30
2022-12-22T02:12:14.611Z,23.30
2022-12-22T02:12:46.226Z,23.29
2022-12-22T02:13:17.629Z,23.27
2022-12-22T02:13:49.109Z,23.29
2022-12-22T02:14:24.754Z,23.30
2022-12-22T02:14:59.242Z,23.29
2022-12-22T02:15:30.691Z,23.30
2022-12-22T02:16:02.127Z,23.31
2022-12-22T02:16:33.618Z,23.29
2022-12-22T02:17:05.073Z,23.32
2022-12-22T02:17:36.405Z,23.31
2022-12-22T02:18:07.840Z,23.30
2022-12-22T02:18:39.298Z,23.31
2022-12-22T02:19:10.698Z,23.32
2022-12-22T02:19:42.044Z,23.33
2022-12-22T02:20:13.450Z,23.32
2022-12-22T02:20:44.854Z,23.29
2022-12-22T02:21:16.264Z,23.30
2022-12-22T02:21:47.652Z,23.30
2022-12-22T02:22:19.071Z,23.30
2022-12-22T02:22:50.418Z,23.29
2022-12-22T02:23:21.824Z,23.28
2022-12-22T02:23:53.188Z,23.29
2022-12-22T02:24:24.762Z,23.29
2022-12-22T02:24:56.214Z,23.29
2022-12-22T02:25:27.628Z,23.31
2022-12-22T02:25:59.044Z,23.30
2022-12-22T02:26:30.396Z,23.30
2022-12-22T02:27:01.832Z,23.29
2022-12-22T02:27:33.258Z,23.30
2022-12-22T02:28:04.688Z,23.30
2022-12-22T02:28:36.049Z,23.31
2022-12-22T02:29:07.421Z,23.30
2022-12-22T02:29:38.791Z,23.32
2022-12-22T02:30:11.082Z,23.32
2022-12-22T02:30:42.465Z,23.31
2022-12-22T02:31:13.925Z,23.29
2022-12-22T02:31:45.389Z,23.31
2022-12-22T02:32:17.719Z,23.28
2022-12-22T02:32:49.141Z,23.29
2022-12-22T02:33:20.506Z,23.29
2022-12-22T02:33:51.860Z,23.31
2022-12-22T02:34:23.275Z,23.28
2022-12-22T02:34:54.622Z,23.29
2022-12-22T02:35:25.983Z,23.30
2022-12-22T02:35:57.341Z,23.29
2022-12-22T02:36:28.944Z,23.32
2022-12-22T02:37:00.382Z,23.29
2022-12-22T02:37:31.867Z,23.28
2022-12-22T02:38:03.459Z,23.29
2022-12-22T02:38:34.905Z,23.31
2022-12-22T02:39:06.266Z,23.30
2022-12-22T02:39:37.683Z,23.31
2022-12-22T02:40:09.032Z,23.29
2022-12-22T02:40:41.792Z,23.30
2022-12-22T02:41:13.401Z,23.30
2022-12-22T02:41:44.832Z,23.32
2022-12-22T02:42:16.176Z,23.33
2022-12-22T02:42:47.532Z,23.30
2022-12-22T02:43:18.887Z,23.30
2022-12-22T02:43:50.227Z,23.31
2022-12-22T02:44:21.596Z,23.29
2022-12-22T02:44:52.959Z,23.31
2022-12-22T02:45:24.323Z,23.29
2022-12-22T02:45:55.796Z,23.30
2022-12-22T02:46:27.182Z,23.31
2022-12-22T02:46:58.829Z,23.29
2022-12-22T02:47:30.265Z,23.31
2022-12-22T02:48:01.599Z,23.32
2022-12-22T02:48:33.016Z,23.29
2022-12-22T02:49:04.439Z,23.31
2022-12-22T02:49:35.811Z,23.30
2022-12-22T02:50:07.207Z,23.31
2022-12-22T02:50:38.609Z,23.32
2022-12-22T02:51:09.968Z,23.31
2022-12-22T02:51:41.336Z,23.31
2022-12-22T02:52:12.783Z,23.29
2022-12-22T02:52:44.221Z,23.28
2022-12-22T02:53:15.590Z,23.30
2022-12-22T02:53:47.089Z,23.30
2022-12-22T02:54:18.859Z,23.29
2022-12-22T02:54:50.332Z,23.31
2022-12-22T02:55:21.716Z,23.30
2022-12-22T02:55:53.111Z,23.30
2022-12-22T02:56:24.645Z,23.31
2022-12-22T02:56:56.187Z,23.32
2022-12-22T02:57:27.685Z,23.32
2022-12-22T02:57:59.109Z,23.31
2022-12-22T02:58:30.476Z,23.30
2022-12-22T02:59:01.837Z,23.31
2022-12-22T02:59:33.205Z,23.30
2022-12-22T03:00:04.541Z,23.34
2022-12-22T03:00:35.925Z,23.33
2022-12-22T03:01:07.515Z,23.32
2022-12-22T03:01:39.077Z,23.32
2022-12-22T03:02:10.778Z,23.32
2022-12-22T03:02:42.621Z,23.31
2022-12-22T03:03:14.319Z,23.31
2022-12-22T03:03:45.993Z,23.30
2022-12-22T03:04:17.454Z,23.30
2022-12-22T03:04:48.846Z,23.31
2022-12-22T03:05:20.204Z,23.28
2022-12-22T03:05:51.612Z,23.31
2022-12-22T03:06:22.990Z,23.29
2022-12-22T03:06:54.395Z,23.30
2022-12-22T03:07:25.821Z,23.31
2022-12-22T03:07:57.290Z,23.30
2022-12-22T03:08:28.678Z,23.27
2022-12-22T03:09:00.107Z,23.27
2022-12-22T03:09:31.481Z,23.29
2022-12-22T03:10:02.846Z,23.29
2022-12-22T03:10:34.312Z,23.30
2022-12-22T03:11:05.690Z,23.29
2022-12-22T03:11:37.088Z,23.30
2022-12-22T03:12:08.627Z,23.30
2022-12-22T03:12:40.195Z,23.29
2022-12-22T03:13:11.612Z,23.29
2022-12-22T03:13:42.999Z,23.31
2022-12-22T03:14:14.364Z,23.31
2022-12-22T03:14:45.788Z,23.28
2022-12-22T03:15:17.177Z,23.30
2022-12-22T03:15:48.608Z,23.32
2022-12-22T03:16:20.338Z,23.33
2022-12-22T03:16:51.753Z,23.31
2022-12-22T03:17:23.194Z,23.32
2022-12-22T03:17:54.594Z,23.32
2022-12-22T03:18:25.946Z,23.31
2022-12-22T03:18:57.414Z,23.31
2022-12-22T03:19:28.954Z,23.30
2022-12-22T03:20:00.327Z,23.31
2022-12-22T03:20:31.747Z,23.31
2022-12-22T03:21:03.149Z,23.31
2022-12-22T03:21:34.524Z,23.30
2022-12-22T03:22:05.906Z,23.31
2022-12-22T03:22:37.270Z,23.31
2022-12-22T03:23:08.609Z,23.31
2022-12-22T03:23:40.036Z,23.31
2022-12-22T03:24:11.489Z,23.30
2022-12-22T03:24:43.032Z,23.28
2022-12-22T03:25:14.407Z,23.29
2022-12-22T03:25:45.771Z,23.28
2022-12-22T03:26:17.211Z,23.29
2022-12-22T03:26:48.566Z,23.32
2022-12-22T03:27:19.951Z,23.32
2022-12-22T03:27:51.318Z,23.29
2022-12-22T03:28:22.758Z,23.29
2022-12-22T03:28:54.124Z,23.28
2022-12-22T03:29:25.475Z,23.29
2022-12-22T03:29:56.890Z,23.29
2022-12-22T03:30:28.302Z,23.27
2022-12-22T03:30:59.753Z,23.28
2022-12-22T03:31:31.243Z,23.29
2022-12-22T03:32:02.678Z,23.29
2022-12-22T03:32:34.060Z,23.30
2022-12-22T03:33:05.520Z,23.29
2022-12-22T03:33:36.894Z,23.31
2022-12-22T03:34:08.251Z,23.29
2022-12-22T03:34:39.682Z,23.29
2022-12-22T03:35:11.081Z,23.29
2022-12-22T03:35:42.463Z,23.29
2022-12-22T03:36:14.002Z,23.30
2022-12-22T03:36:45.406Z,23.29
2022-12-22T03:37:16.796Z,23.29
2022-12-22T03:37:48.170Z,23.30
2022-12-22T03:38:19.544Z,23.30
2022-12-22T03:38:50.949Z,23.30
2022-12-22T03:39:22.327Z,23.30
2022-12-22T03:39:53.768Z,23.28
2022-12-22T03:40:25.249Z,23.31
2022-12-22T03:40:56.621Z,23.28
2022-12-22T03:41:27.958Z,23.30
2022-12-22T03:41:59.322Z,23.30
2022-12-22T03:42:30.748Z,23.27
2022-12-22T03:43:02.148Z,23.28
2022-12-22T03:43:33.513Z,23.28
2022-12-22T03:44:04.965Z,23.31
2022-12-22T03:44:36.330Z,23.31
2022-12-22T03:45:07.700Z,23.28
2022-12-22T03:45:39.293Z,23.29
2022-12-22T03:46:10.683Z,23.31
2022-12-22T03:46:42.132Z,23.28
2022-12-22T03:47:13.591Z,23.29
2022-12-22T03:47:44.999Z,23.30
2022-12-22T03:48:16.536Z,23.29
2022-12-22T03:48:47.927Z,23.30
2022-12-22T03:49:19.263Z,23.33
2022-12-22T03:49:50.701Z,23.31
2022-12-22T03:50:22.109Z,23.30
2022-12-22T03:50:53.539Z,23.29
2022-12-22T03:51:24.892Z,23.29
2022-12-22T03:51:56.283Z,23.29
2022-12-22T03:52:27.754Z,23.30
2022-12-22T03:52:59.133Z,23.30
2022-12-22T03:53:30.563Z,23.28
2022-12-22T03:54:02.035Z,23.31
2022-12-22T03:54:33.436Z,23.30
2022-12-22T03:55:04.823Z,23.28
2022-12-22T03:55:36.206Z,23.28
2022-12-22T03:56:08.224Z,23.31
2022-12-22T03:56:39.759Z,23.31
2022-12-22T03:57:11.160Z,23.30
2022-12-22T03:57:42.542Z,23.30
2022-12-22T03:58:13.954Z,23.30
2022-12-22T03:58:45.397Z,23.31
2022-12-22T03:59:16.767Z,23.31
2022-12-22T03:59:48.146Z,23.30
2022-12-22T04:00:19.489Z,23.28
2022-12-22T04:00:50.976Z,23.29
2022-12-22T04:01:22.478Z,23.32
2022-12-22T04:01:53.978Z,23.30
2022-12-22T04:02:25.548Z,23.31
2022-12-22T04:02:57.047Z,23.32
2022-12-22T04:03:28.525Z,23.32
2022-12-22T04:03:59.921Z,23.33
2022-12-22T04:04:31.325Z,23.31
2022-12-22T04:05:02.716Z,23.32
2022-12-22T04:05:34.089Z,23.31
2022-12-22T04:06:05.561Z,23.34
2022-12-22T04:06:36.962Z,23.33
2022-12-22T04:07:08.362Z,23.31
2022-12-22T04:07:39.743Z,23.31
2022-12-22T04:08:11.095Z,23.31
2022-12-22T04:08:42.513Z,23.30
2022-12-22T04:09:13.891Z,23.32
2022-12-22T04:09:45.279Z,23.30
2022-12-22T04:10:17.520Z,23.30
2022-12-22T04:10:48.860Z,23.31
2022-12-22T04:11:20.244Z,23.31
2022-12-22T04:11:51.633Z,23.31
2022-12-22T04:12:23.124Z,23.32
2022-12-22T04:12:54.598Z,23.32
2022-12-22T04:13:26.011Z,23.33
2022-12-22T04:13:57.365Z,23.32
2022-12-22T04:14:33.842Z,23.31
2022-12-22T04:15:06.178Z,23.31
2022-12-22T04:15:37.563Z,23.29
2022-12-22T04:16:09.013Z,23.30
2022-12-22T04:16:40.450Z,23.31
2022-12-22T04:17:11.876Z,23.31
2022-12-22T04:17:43.276Z,23.30
2022-12-22T04:18:14.785Z,23.29
2022-12-22T04:18:46.218Z,23.31
2022-12-22T04:19:17.609Z,23.31
2022-12-22T04:19:49.052Z,23.30
2022-12-22T04:20:20.423Z,23.33
2022-12-22T04:20:51.835Z,23.32
2022-12-22T04:21:23.236Z,23.35
2022-12-22T04:21:54.654Z,23.31
2022-12-22T04:22:26.127Z,23.32
2022-12-22T04:22:57.594Z,23.32
2022-12-22T04:23:29.011Z,23.32
2022-12-22T04:24:00.409Z,23.31
2022-12-22T04:24:31.799Z,23.33
2022-12-22T04:25:03.178Z,23.33
2022-12-22T04:25:34.537Z,23.31
2022-12-22T04:26:05.901Z,23.32
2022-12-22T04:26:37.283Z,23.31
2022-12-22T04:27:08.674Z,23.33
2022-12-22T04:27:40.046Z,23.33
2022-12-22T04:28:11.515Z,23.35
2022-12-22T04:28:42.925Z,23.30
2022-12-22T04:29:14.380Z,23.32
2022-12-22T04:29:45.781Z,23.32
2022-12-22T04:30:17.295Z,23.32
2022-12-22T04:30:48.691Z,23.30
2022-12-22T04:31:20.128Z,23.32
2022-12-22T04:31:51.662Z,23.29
2022-12-22T04:32:23.063Z,23.30
2022-12-22T04:32:54.434Z,23.31
2022-12-22T04:33:25.935Z,23.31
2022-12-22T04:33:57.276Z,23.31
2022-12-22T04:34:28.595Z,23.32
2022-12-22T04:35:00.088Z,23.32
2022-12-22T04:35:31.484Z,23.30
2022-12-22T04:36:03.054Z,23.31
2022-12-22T04:36:34.430Z,23.30
2022-12-22T04:37:16.493Z,23.29
2022-12-22T04:37:48.329Z,23.28
2022-12-22T04:38:19.697Z,23.30
2022-12-22T04:38:51.225Z,23.29
2022-12-22T04:39:22.616Z,23.30
2022-12-22T04:39:54.024Z,23.30
2022-12-22T04:40:25.416Z,23.26
2022-12-22T04:40:56.806Z,23.29
2022-12-22T04:41:28.192Z,23.30
2022-12-22T04:41:59.541Z,23.30
2022-12-22T04:42:30.937Z,23.30
2022-12-22T04:43:02.363Z,23.32
2022-12-22T04:43:33.733Z,23.31
2022-12-22T04:44:05.115Z,23.32
2022-12-22T04:44:36.592Z,23.32
2022-12-22T04:45:07.991Z,23.30
2022-12-22T04:45:39.520Z,23.31
2022-12-22T04:46:10.994Z,23.32
2022-12-22T04:46:42.360Z,23.32
2022-12-22T04:47:13.726Z,23.31
2022-12-22T04:47:45.097Z,23.30
2022-12-22T04:48:16.525Z,23.32
2022-12-22T04:48:47.933Z,23.31
2022-12-22T04:49:19.289Z,23.32
2022-12-22T04:49:50.714Z,23.32
2022-12-22T04:50:22.173Z,23.32
2022-12-22T04:50:53.556Z,23.31
2022-12-22T04:51:25.018Z,23.32
2022-12-22T04:51:56.427Z,23.31
2022-12-22T04:52:27.867Z,23.31
2022-12-22T04:52:59.231Z,23.33
2022-12-22T04:53:30.587Z,23.32
2022-12-22T04:54:02.113Z,23.30
2022-12-22T04:54:33.651Z,23.30
2022-12-22T04:55:05.038Z,23.32
2022-12-22T04:55:36.389Z,23.31
2022-12-22T04:56:07.790Z,23.32
2022-12-22T04:56:39.187Z,23.30
2022-12-22T04:57:10.589Z,23.31
2022-12-22T04:57:42.008Z,23.30
2022-12-22T04:58:13.448Z,23.30
2022-12-22T04:58:44.789Z,23.31
2022-12-22T04:59:16.261Z,23.30
2022-12-22T04:59:47.653Z,23.31
2022-12-22T05:00:19.043Z,23.29
2022-12-22T05:00:50.431Z,23.31
2022-12-22T05:01:22.043Z,23.32
2022-12-22T05:01:53.546Z,23.33
2022-12-22T05:02:25.189Z,23.32
2022-12-22T05:02:56.746Z,23.32
2022-12-22T05:03:28.251Z,23.30
2022-12-22T05:03:59.667Z,23.31
2022-12-22T05:04:31.040Z,23.31
2022-12-22T05:05:02.393Z,23.28
2022-12-22T05:05:33.771Z,23.27
2022-12-22T05:06:05.326Z,23.29
2022-12-22T05:06:36.799Z,23.31
2022-12-22T05:07:08.170Z,23.32
2022-12-22T05:07:39.569Z,23.30
2022-12-22T05:08:11.029Z,23.29
2022-12-22T05:08:42.393Z,23.32
2022-12-22T05:09:13.761Z,23.30
2022-12-22T05:09:45.146Z,23.30
2022-12-22T05:10:16.492Z,23.31
2022-12-22T05:10:47.944Z,23.31
2022-12-22T05:11:19.321Z,23.31
2022-12-22T05:11:50.787Z,23.30
2022-12-22T05:12:22.308Z,23.28
2022-12-22T05:12:53.715Z,23.29
2022-12-22T05:13:25.136Z,23.30
2022-12-22T05:13:59.652Z,23.31
2022-12-22T05:14:33.459Z,23.32
2022-12-22T05:15:05.073Z,23.31
2022-12-22T05:15:36.457Z,23.31
2022-12-22T05:16:07.885Z,23.32
2022-12-22T05:16:39.420Z,23.30
2022-12-22T05:17:10.898Z,23.29
2022-12-22T05:17:42.308Z,23.28
2022-12-22T05:18:13.698Z,23.32
2022-12-22T05:18:45.089Z,23.31
2022-12-22T05:19:16.487Z,23.31
2022-12-22T05:19:47.886Z,23.31
2022-12-22T05:20:19.245Z,23.30
2022-12-22T05:20:50.682Z,23.30
2022-12-22T05:21:22.101Z,23.31
2022-12-22T05:21:53.462Z,23.32
2022-12-22T05:22:24.870Z,23.33
2022-12-22T05:22:56.259Z,23.32
2022-12-22T05:23:27.643Z,23.30
2022-12-22T05:23:59.027Z,23.31
2022-12-22T05:24:31.029Z,23.30
2022-12-22T05:25:02.425Z,23.31
2022-12-22T05:25:35.585Z,23.30
2022-12-22T05:26:07.150Z,23.30
2022-12-22T05:26:38.546Z,23.29
2022-12-22T05:27:11.031Z,23.33
2022-12-22T05:27:42.456Z,23.30
2022-12-22T05:28:13.833Z,23.30
2022-12-22T05:28:45.220Z,23.31
2022-12-22T05:29:16.592Z,23.31
2022-12-22T05:29:48.019Z,23.32
2022-12-22T05:30:19.376Z,23.29
2022-12-22T05:30:50.832Z,23.31
2022-12-22T05:31:22.379Z,23.30
2022-12-22T05:31:53.824Z,23.29
2022-12-22T05:32:25.201Z,23.28
2022-12-22T05:32:56.583Z,23.29
2022-12-22T05:33:27.952Z,23.26
2022-12-22T05:33:59.348Z,23.29
2022-12-22T05:34:30.714Z,23.30
2022-12-22T05:35:02.093Z,23.30
2022-12-22T05:35:33.546Z,23.31
2022-12-22T05:36:05.440Z,23.31
2022-12-22T05:36:36.819Z,23.30
2022-12-22T05:37:08.187Z,23.33
2022-12-22T05:37:39.590Z,23.33
2022-12-22T05:38:11.018Z,23.30
2022-12-22T05:38:42.451Z,23.32
2022-12-22T05:39:13.904Z,23.30
2022-12-22T05:39:45.266Z,23.29
2022-12-22T05:40:16.664Z,23.30
2022-12-22T05:40:48.025Z,23.29
2022-12-22T05:41:19.427Z,23.29
2022-12-22T05:41:50.815Z,23.30
2022-12-22T05:42:22.207Z,23.29
2022-12-22T05:42:53.575Z,23.25
2022-12-22T05:43:25.071Z,23.27
2022-12-22T05:43:56.471Z,23.29
2022-12-22T05:44:27.886Z,23.30
2022-12-22T05:44:59.248Z,23.31
2022-12-22T05:45:30.618Z,23.30
2022-12-22T05:46:02.061Z,23.31
2022-12-22T05:46:33.466Z,23.30
2022-12-22T05:47:04.856Z,23.30
2022-12-22T05:47:36.234Z,23.29
2022-12-22T05:48:07.709Z,23.27
2022-12-22T05:48:40.043Z,23.27
2022-12-22T05:49:11.680Z,23.31
2022-12-22T05:49:43.120Z,23.30
2022-12-22T05:50:14.492Z,23.28
2022-12-22T05:50:45.887Z,23.29
2022-12-22T05:51:17.280Z,23.31
2022-12-22T05:51:48.652Z,23.30
2022-12-22T05:52:20.003Z,23.30
2022-12-22T05:52:51.411Z,23.31
2022-12-22T05:53:22.793Z,23.29
2022-12-22T05:53:54.232Z,23.30
2022-12-22T05:54:25.615Z,23.30
2022-12-22T05:54:56.972Z,23.29
2022-12-22T05:55:28.354Z,23.29
2022-12-22T05:55:59.783Z,23.30
2022-12-22T05:56:31.173Z,23.31
2022-12-22T05:57:02.580Z,23.29
2022-12-22T05:57:34.027Z,23.32
2022-12-22T05:58:05.395Z,23.31
2022-12-22T05:58:36.788Z,23.32
2022-12-22T05:59:08.237Z,23.33
2022-12-22T05:59:39.616Z,23.32
2022-12-22T06:00:10.983Z,23.30
2022-12-22T06:00:42.353Z,23.29
2022-12-22T06:01:13.799Z,23.31
2022-12-22T06:01:45.236Z,23.30
2022-12-22T06:02:16.801Z,23.30
2022-12-22T06:02:48.292Z,23.32
2022-12-22T06:03:19.826Z,23.30
2022-12-22T06:03:54.732Z,23.30
2022-12-22T06:04:31.051Z,23.32
2022-12-22T06:05:02.461Z,23.30
2022-12-22T06:05:33.881Z,23.30
2022-12-22T06:06:05.416Z,23.30
2022-12-22T06:06:36.831Z,23.30
2022-12-22T06:07:08.286Z,23.29
2022-12-22T06:07:39.631Z,23.32
2022-12-22T06:08:10.974Z,23.31
2022-12-22T06:08:42.344Z,23.32
2022-12-22T06:09:13.720Z,23.32
2022-12-22T06:09:45.118Z,23.29
2022-12-22T06:10:16.533Z,23.30
2022-12-22T06:10:47.857Z,23.28
2022-12-22T06:11:19.309Z,23.28
2022-12-22T06:11:50.684Z,23.30
2022-12-22T06:12:22.039Z,23.31
2022-12-22T06:12:53.513Z,23.31
2022-12-22T06:13:25.032Z,23.30
2022-12-22T06:13:56.368Z,23.31
2022-12-22T06:14:27.707Z,23.29
2022-12-22T06:14:59.184Z,23.29
2022-12-22T06:15:30.556Z,23.29
2022-12-22T06:16:02.049Z,23.31
2022-12-22T06:16:33.501Z,23.29
2022-12-22T06:17:04.946Z,23.32
2022-12-22T06:17:42.354Z,23.29
2022-12-22T06:18:16.070Z,23.31
2022-12-22T06:18:47.474Z,23.30
2022-12-22T06:19:18.856Z,23.31
2022-12-22T06:19:50.191Z,23.32
2022-12-22T06:20:21.642Z,23.30
2022-12-22T06:20:53.024Z,23.33
2022-12-22T06:21:24.391Z,23.31
2022-12-22T06:21:55.772Z,23.31
2022-12-22T06:22:27.195Z,23.31
2022-12-22T06:22:58.604Z,23.30
2022-12-22T06:23:30.019Z,23.30
2022-12-22T06:24:01.399Z,23.32
2022-12-22T06:24:32.795Z,23.32
2022-12-22T06:25:04.220Z,23.30
2022-12-22T06:25:35.765Z,23.30
2022-12-22T06:26:07.162Z,23.31
2022-12-22T06:26:38.547Z,23.31
2022-12-22T06:27:09.884Z,23.30
2022-12-22T06:27:41.313Z,23.29
2022-12-22T06:28:12.683Z,23.30
2022-12-22T06:28:44.011Z,23.30
2022-12-22T06:29:15.458Z,23.29
2022-12-22T06:29:46.801Z,23.29
2022-12-22T06:30:18.194Z,23.29
2022-12-22T06:30:49.636Z,23.28
2022-12-22T06:31:21.210Z,23.30
2022-12-22T06:31:52.635Z,23.30
2022-12-22T06:32:23.989Z,23.30
2022-12-22T06:32:55.536Z,23.30
2022-12-22T06:33:26.885Z,23.30
2022-12-22T06:33:58.256Z,23.31
2022-12-22T06:34:29.552Z,23.30
2022-12-22T06:35:00.933Z,23.32
2022-12-22T06:35:32.359Z,23.31
2022-12-22T06:36:04.041Z,23.31
2022-12-22T06:36:35.584Z,23.31
2022-12-22T06:37:06.979Z,23.30
2022-12-22T06:37:38.355Z,23.29
2022-12-22T06:38:09.684Z,23.31
2022-12-22T06:38:41.021Z,23.30
2022-12-22T06:39:12.384Z,23.31
2022-12-22T06:39:43.726Z,23.31
2022-12-22T06:40:15.120Z,23.29
2022-12-22T06:40:46.486Z,23.31
2022-12-22T06:41:17.927Z,23.29
2022-12-22T06:41:49.357Z,23.31
2022-12-22T06:42:20.783Z,23.30
2022-12-22T06:42:52.208Z,23.31
2022-12-22T06:43:23.568Z,23.30
2022-12-22T06:43:54.947Z,23.29
2022-12-22T06:44:26.313Z,23.29
2022-12-22T06:44:57.706Z,23.29
2022-12-22T06:45:29.072Z,23.30